sensor_id;sensor_type;location;lat;lon;timestamp;temperature;humidity
22526;DHT22;11429;50.842;4.386;2022-07-06T00:01:17;16.70;99.90
22526;DHT22;11429;50.842;4.386;2022-07-06T00:03:43;16.60;99.90
22526;DHT22;11429;50.842;4.386;2022-07-06T00:06:08;16.60;99.90
22526;DHT22;11429;50.842;4.386;2022-07-06T00:08:34;16.80;99.90
22526;DHT22;11429;50.842;4.386;2022-07-06T00:11:00;16.80;99.90
22526;DHT22;11429;50.842;4.386;2022-07-06T00:13:27;16.60;99.90
22526;DHT22;11429;50.842;4.386;2022-07-06T00:15:53;16.70;99.90
22526;DHT22;11429;50.842;4.386;2022-07-06T00:18:19;16.80;99.90
22526;DHT22;11429;50.842;4.386;2022-07-06T00:20:45;16.80;99.90
22526;DHT22;11429;50.842;4.386;2022-07-06T00:23:11;16.70;99.90
22526;DHT22;11429;50.842;4.386;2022-07-06T00:25:36;16.80;99.90
22526;DHT22;11429;50.842;4.386;2022-07-06T00:28:02;16.70;99.90
22526;DHT22;11429;50.842;4.386;2022-07-06T00:30:28;16.60;99.90
22526;DHT22;11429;50.842;4.386;2022-07-06T00:32:54;16.30;99.90
22526;DHT22;11429;50.842;4.386;2022-07-06T00:35:20;16.40;99.90
22526;DHT22;11429;50.842;4.386;2022-07-06T00:37:46;16.40;99.90
22526;DHT22;11429;50.842;4.386;2022-07-06T00:40:12;16.50;99.90
22526;DHT22;11429;50.842;4.386;2022-07-06T00:42:42;16.50;99.90
22526;DHT22;11429;50.842;4.386;2022-07-06T00:45:09;16.50;99.90
22526;DHT22;11429;50.842;4.386;2022-07-06T00:47:35;16.40;99.90
22526;DHT22;11429;50.842;4.386;2022-07-06T00:50:03;16.50;99.90
22526;DHT22;11429;50.842;4.386;2022-07-06T00:52:47;16.50;99.90
22526;DHT22;11429;50.842;4.386;2022-07-06T00:55:15;16.60;99.90
22526;DHT22;11429;50.842;4.386;2022-07-06T00:57:42;16.60;99.90
22526;DHT22;11429;50.842;4.386;2022-07-06T01:00:13;16.60;99.90
22526;DHT22;11429;50.842;4.386;2022-07-06T01:02:40;16.60;99.90
22526;DHT22;11429;50.842;4.386;2022-07-06T01:05:07;16.30;99.90
22526;DHT22;11429;50.842;4.386;2022-07-06T01:07:34;16.30;99.90
22526;DHT22;11429;50.842;4.386;2022-07-06T01:09:59;16.40;99.90
22526;DHT22;11429;50.842;4.386;2022-07-06T01:12:26;16.50;99.90
22526;DHT22;11429;50.842;4.386;2022-07-06T01:14:52;16.60;99.90
22526;DHT22;11429;50.842;4.386;2022-07-06T01:17:18;16.60;99.90
22526;DHT22;11429;50.842;4.386;2022-07-06T01:19:44;16.50;99.90
22526;DHT22;11429;50.842;4.386;2022-07-06T01:22:10;16.50;99.90
22526;DHT22;11429;50.842;4.386;2022-07-06T01:24:36;16.50;99.90
22526;DHT22;11429;50.842;4.386;2022-07-06T01:27:04;16.20;99.90
22526;DHT22;11429;50.842;4.386;2022-07-06T01:29:31;16.20;99.90
22526;DHT22;11429;50.842;4.386;2022-07-06T01:31:57;16.20;99.90
22526;DHT22;11429;50.842;4.386;2022-07-06T01:34:23;16.20;99.90
22526;DHT22;11429;50.842;4.386;2022-07-06T01:36:48;16.20;99.90
22526;DHT22;11429;50.842;4.386;2022-07-06T01:39:14;16.30;99.90
22526;DHT22;11429;50.842;4.386;2022-07-06T01:41:40;16.30;99.90
22526;DHT22;11429;50.842;4.386;2022-07-06T01:44:06;16.40;99.90
22526;DHT22;11429;50.842;4.386;2022-07-06T01:46:32;16.40;99.90
22526;DHT22;11429;50.842;4.386;2022-07-06T01:48:58;16.30;99.90
22526;DHT22;11429;50.842;4.386;2022-07-06T01:51:24;16.30;99.90
22526;DHT22;11429;50.842;4.386;2022-07-06T01:53:50;16.20;99.90
22526;DHT22;11429;50.842;4.386;2022-07-06T01:56:17;16.30;99.90
22526;DHT22;11429;50.842;4.386;2022-07-06T01:58:44;16.50;99.90
22526;DHT22;11429;50.842;4.386;2022-07-06T02:01:15;16.30;99.90
22526;DHT22;11429;50.842;4.386;2022-07-06T02:03:42;16.40;99.90
22526;DHT22;11429;50.842;4.386;2022-07-06T02:06:07;16.40;99.90
22526;DHT22;11429;50.842;4.386;2022-07-06T02:08:34;16.40;99.90
22526;DHT22;11429;50.842;4.386;2022-07-06T02:11:01;16.30;99.90
22526;DHT22;11429;50.842;4.386;2022-07-06T02:13:27;16.40;99.90
22526;DHT22;11429;50.842;4.386;2022-07-06T02:15:52;16.30;99.90
22526;DHT22;11429;50.842;4.386;2022-07-06T02:18:18;16.30;99.90
22526;DHT22;11429;50.842;4.386;2022-07-06T02:20:44;16.40;99.90
22526;DHT22;11429;50.842;4.386;2022-07-06T02:23:10;16.50;99.90
22526;DHT22;11429;50.842;4.386;2022-07-06T02:25:35;16.40;99.90
22526;DHT22;11429;50.842;4.386;2022-07-06T02:28:01;16.30;99.90
22526;DHT22;11429;50.842;4.386;2022-07-06T02:30:26;16.20;99.90
22526;DHT22;11429;50.842;4.386;2022-07-06T02:32:52;16.20;99.90
22526;DHT22;11429;50.842;4.386;2022-07-06T02:35:18;16.20;99.90
22526;DHT22;11429;50.842;4.386;2022-07-06T02:37:44;16.20;99.90
22526;DHT22;11429;50.842;4.386;2022-07-06T02:40:10;16.20;99.90
22526;DHT22;11429;50.842;4.386;2022-07-06T02:42:35;16.10;99.90
22526;DHT22;11429;50.842;4.386;2022-07-06T02:45:01;16.00;99.90
22526;DHT22;11429;50.842;4.386;2022-07-06T02:47:27;16.00;99.90
22526;DHT22;11429;50.842;4.386;2022-07-06T02:49:55;16.00;99.90
22526;DHT22;11429;50.842;4.386;2022-07-06T02:52:20;16.00;99.90
22526;DHT22;11429;50.842;4.386;2022-07-06T02:54:46;16.00;99.90
22526;DHT22;11429;50.842;4.386;2022-07-06T02:57:12;16.00;99.90
22526;DHT22;11429;50.842;4.386;2022-07-06T02:59:38;15.90;99.90
22526;DHT22;11429;50.842;4.386;2022-07-06T03:02:04;15.90;99.90
22526;DHT22;11429;50.842;4.386;2022-07-06T03:04:30;15.90;99.90
22526;DHT22;11429;50.842;4.386;2022-07-06T03:06:56;15.70;99.90
22526;DHT22;11429;50.842;4.386;2022-07-06T03:09:21;15.70;99.90
22526;DHT22;11429;50.842;4.386;2022-07-06T03:11:47;15.70;99.90
22526;DHT22;11429;50.842;4.386;2022-07-06T03:14:13;15.80;99.90
22526;DHT22;11429;50.842;4.386;2022-07-06T03:16:38;15.80;99.90
22526;DHT22;11429;50.842;4.386;2022-07-06T03:19:04;15.80;99.90
22526;DHT22;11429;50.842;4.386;2022-07-06T03:21:30;15.70;99.90
22526;DHT22;11429;50.842;4.386;2022-07-06T03:23:55;15.60;99.90
22526;DHT22;11429;50.842;4.386;2022-07-06T03:26:21;15.70;99.90
22526;DHT22;11429;50.842;4.386;2022-07-06T03:28:47;15.70;99.90
22526;DHT22;11429;50.842;4.386;2022-07-06T03:31:12;15.80;99.90
22526;DHT22;11429;50.842;4.386;2022-07-06T03:33:38;15.70;99.90
22526;DHT22;11429;50.842;4.386;2022-07-06T03:36:04;15.70;99.90
22526;DHT22;11429;50.842;4.386;2022-07-06T03:38:30;15.70;99.90
22526;DHT22;11429;50.842;4.386;2022-07-06T03:40:56;15.80;99.90
22526;DHT22;11429;50.842;4.386;2022-07-06T03:43:21;15.80;99.90
22526;DHT22;11429;50.842;4.386;2022-07-06T03:45:47;15.80;99.90
22526;DHT22;11429;50.842;4.386;2022-07-06T03:48:13;15.60;99.90
22526;DHT22;11429;50.842;4.386;2022-07-06T03:50:39;15.60;99.90
22526;DHT22;11429;50.842;4.386;2022-07-06T03:53:04;15.70;99.90
22526;DHT22;11429;50.842;4.386;2022-07-06T03:55:30;15.60;99.90
22526;DHT22;11429;50.842;4.386;2022-07-06T03:57:55;15.60;99.90
22526;DHT22;11429;50.842;4.386;2022-07-06T04:00:21;15.70;99.90
22526;DHT22;11429;50.842;4.386;2022-07-06T04:02:47;15.80;99.90
22526;DHT22;11429;50.842;4.386;2022-07-06T04:05:12;15.90;99.90
22526;DHT22;11429;50.842;4.386;2022-07-06T04:07:38;15.80;99.90
22526;DHT22;11429;50.842;4.386;2022-07-06T04:10:04;16.00;99.90
22526;DHT22;11429;50.842;4.386;2022-07-06T04:12:30;16.00;99.90
22526;DHT22;11429;50.842;4.386;2022-07-06T04:14:57;16.00;99.90
22526;DHT22;11429;50.842;4.386;2022-07-06T04:17:23;16.00;99.90
22526;DHT22;11429;50.842;4.386;2022-07-06T04:20:08;16.10;99.90
22526;DHT22;11429;50.842;4.386;2022-07-06T04:22:38;16.20;99.90
22526;DHT22;11429;50.842;4.386;2022-07-06T04:25:04;16.30;99.90
22526;DHT22;11429;50.842;4.386;2022-07-06T04:27:30;16.40;99.90
22526;DHT22;11429;50.842;4.386;2022-07-06T04:29:55;16.50;99.90
22526;DHT22;11429;50.842;4.386;2022-07-06T04:32:21;16.50;99.90
22526;DHT22;11429;50.842;4.386;2022-07-06T04:34:47;16.60;99.90
22526;DHT22;11429;50.842;4.386;2022-07-06T04:37:12;16.60;99.90
22526;DHT22;11429;50.842;4.386;2022-07-06T04:39:38;16.50;99.90
22526;DHT22;11429;50.842;4.386;2022-07-06T04:42:04;16.40;99.90
22526;DHT22;11429;50.842;4.386;2022-07-06T04:44:30;16.50;99.90
22526;DHT22;11429;50.842;4.386;2022-07-06T04:46:55;16.50;99.90
22526;DHT22;11429;50.842;4.386;2022-07-06T04:49:21;16.40;99.90
22526;DHT22;11429;50.842;4.386;2022-07-06T04:51:47;16.40;99.90
22526;DHT22;11429;50.842;4.386;2022-07-06T04:54:12;16.40;99.90
22526;DHT22;11429;50.842;4.386;2022-07-06T04:56:38;16.60;99.90
22526;DHT22;11429;50.842;4.386;2022-07-06T04:59:04;16.60;99.90
22526;DHT22;11429;50.842;4.386;2022-07-06T05:01:30;16.80;99.90
22526;DHT22;11429;50.842;4.386;2022-07-06T05:03:56;17.10;99.90
22526;DHT22;11429;50.842;4.386;2022-07-06T05:06:22;17.30;99.90
22526;DHT22;11429;50.842;4.386;2022-07-06T05:08:47;17.60;99.90
22526;DHT22;11429;50.842;4.386;2022-07-06T05:11:13;18.30;99.90
22526;DHT22;11429;50.842;4.386;2022-07-06T05:13:39;19.00;99.90
22526;DHT22;11429;50.842;4.386;2022-07-06T05:16:05;19.20;99.90
22526;DHT22;11429;50.842;4.386;2022-07-06T05:18:31;19.30;99.90
22526;DHT22;11429;50.842;4.386;2022-07-06T05:20:57;19.30;99.90
22526;DHT22;11429;50.842;4.386;2022-07-06T05:23:23;18.80;99.90
22526;DHT22;11429;50.842;4.386;2022-07-06T05:25:48;18.80;99.90
22526;DHT22;11429;50.842;4.386;2022-07-06T05:28:14;18.80;99.90
22526;DHT22;11429;50.842;4.386;2022-07-06T05:30:40;18.30;99.90
22526;DHT22;11429;50.842;4.386;2022-07-06T05:33:05;18.10;99.90
22526;DHT22;11429;50.842;4.386;2022-07-06T05:35:31;17.90;99.90
22526;DHT22;11429;50.842;4.386;2022-07-06T05:37:56;18.00;99.90
22526;DHT22;11429;50.842;4.386;2022-07-06T05:40:22;17.60;99.90
22526;DHT22;11429;50.842;4.386;2022-07-06T05:42:48;17.40;99.90
22526;DHT22;11429;50.842;4.386;2022-07-06T05:45:14;17.60;99.90
22526;DHT22;11429;50.842;4.386;2022-07-06T05:47:40;17.80;99.90
22526;DHT22;11429;50.842;4.386;2022-07-06T05:50:24;17.80;99.90
22526;DHT22;11429;50.842;4.386;2022-07-06T05:53:01;17.80;99.90
22526;DHT22;11429;50.842;4.386;2022-07-06T05:55:27;18.60;99.90
22526;DHT22;11429;50.842;4.386;2022-07-06T05:57:53;19.10;99.90
22526;DHT22;11429;50.842;4.386;2022-07-06T06:00:26;19.20;99.90
22526;DHT22;11429;50.842;4.386;2022-07-06T06:02:52;19.10;99.90
22526;DHT22;11429;50.842;4.386;2022-07-06T06:05:19;18.80;99.90
22526;DHT22;11429;50.842;4.386;2022-07-06T06:07:45;18.70;99.90
22526;DHT22;11429;50.842;4.386;2022-07-06T06:10:17;19.30;99.90
22526;DHT22;11429;50.842;4.386;2022-07-06T06:12:44;19.70;99.90
22526;DHT22;11429;50.842;4.386;2022-07-06T06:15:11;20.40;99.90
22526;DHT22;11429;50.842;4.386;2022-07-06T06:17:37;21.30;99.90
22526;DHT22;11429;50.842;4.386;2022-07-06T06:20:05;20.70;99.90
22526;DHT22;11429;50.842;4.386;2022-07-06T06:22:43;20.40;99.90
22526;DHT22;11429;50.842;4.386;2022-07-06T06:25:09;20.20;99.90
22526;DHT22;11429;50.842;4.386;2022-07-06T06:27:36;19.90;99.90
22526;DHT22;11429;50.842;4.386;2022-07-06T06:30:02;20.30;99.90
22526;DHT22;11429;50.842;4.386;2022-07-06T06:32:29;21.40;99.90
22526;DHT22;11429;50.842;4.386;2022-07-06T06:34:55;23.60;99.90
22526;DHT22;11429;50.842;4.386;2022-07-06T06:37:20;25.40;99.90
22526;DHT22;11429;50.842;4.386;2022-07-06T06:39:46;25.80;99.90
22526;DHT22;11429;50.842;4.386;2022-07-06T06:42:12;26.00;99.90
22526;DHT22;11429;50.842;4.386;2022-07-06T06:44:38;25.20;99.90
22526;DHT22;11429;50.842;4.386;2022-07-06T06:47:03;25.00;99.90
22526;DHT22;11429;50.842;4.386;2022-07-06T06:49:29;26.00;99.90
22526;DHT22;11429;50.842;4.386;2022-07-06T06:51:55;25.60;99.90
22526;DHT22;11429;50.842;4.386;2022-07-06T06:54:20;26.20;99.90
22526;DHT22;11429;50.842;4.386;2022-07-06T06:56:46;26.20;99.00
22526;DHT22;11429;50.842;4.386;2022-07-06T06:59:11;26.60;98.20
22526;DHT22;11429;50.842;4.386;2022-07-06T07:01:37;27.30;97.10
22526;DHT22;11429;50.842;4.386;2022-07-06T07:04:03;27.00;97.20
22526;DHT22;11429;50.842;4.386;2022-07-06T07:06:29;26.00;97.20
22526;DHT22;11429;50.842;4.386;2022-07-06T07:08:54;24.30;99.10
22526;DHT22;11429;50.842;4.386;2022-07-06T07:11:21;24.10;99.90
22526;DHT22;11429;50.842;4.386;2022-07-06T07:13:48;23.90;99.90
22526;DHT22;11429;50.842;4.386;2022-07-06T07:16:14;23.70;99.90
22526;DHT22;11429;50.842;4.386;2022-07-06T07:18:39;23.20;99.90
22526;DHT22;11429;50.842;4.386;2022-07-06T07:21:05;22.70;99.90
22526;DHT22;11429;50.842;4.386;2022-07-06T07:23:30;22.70;99.90
22526;DHT22;11429;50.842;4.386;2022-07-06T07:25:56;25.30;99.20
22526;DHT22;11429;50.842;4.386;2022-07-06T07:28:22;25.30;97.90
22526;DHT22;11429;50.842;4.386;2022-07-06T07:30:48;25.00;98.40
22526;DHT22;11429;50.842;4.386;2022-07-06T07:33:13;23.90;99.90
22526;DHT22;11429;50.842;4.386;2022-07-06T07:35:39;24.40;99.40
22526;DHT22;11429;50.842;4.386;2022-07-06T07:38:05;24.90;98.90
22526;DHT22;11429;50.842;4.386;2022-07-06T07:40:31;24.50;99.60
22526;DHT22;11429;50.842;4.386;2022-07-06T07:42:56;24.30;99.40
22526;DHT22;11429;50.842;4.386;2022-07-06T07:45:22;24.50;99.00
22526;DHT22;11429;50.842;4.386;2022-07-06T07:47:49;24.70;99.00
22526;DHT22;11429;50.842;4.386;2022-07-06T07:50:15;25.60;98.30
22526;DHT22;11429;50.842;4.386;2022-07-06T07:52:41;25.40;97.80
22526;DHT22;11429;50.842;4.386;2022-07-06T07:55:07;25.40;98.30
22526;DHT22;11429;50.842;4.386;2022-07-06T07:57:33;26.90;96.90
22526;DHT22;11429;50.842;4.386;2022-07-06T07:59:58;28.00;94.60
22526;DHT22;11429;50.842;4.386;2022-07-06T08:02:24;26.70;95.30
22526;DHT22;11429;50.842;4.386;2022-07-06T08:04:49;26.40;96.00
22526;DHT22;11429;50.842;4.386;2022-07-06T08:07:15;26.40;95.80
22526;DHT22;11429;50.842;4.386;2022-07-06T08:09:41;25.40;96.30
22526;DHT22;11429;50.842;4.386;2022-07-06T08:12:07;26.60;95.90
22526;DHT22;11429;50.842;4.386;2022-07-06T08:14:34;27.20;95.50
22526;DHT22;11429;50.842;4.386;2022-07-06T08:17:00;27.60;95.00
22526;DHT22;11429;50.842;4.386;2022-07-06T08:19:25;28.80;93.30
22526;DHT22;11429;50.842;4.386;2022-07-06T08:21:51;30.50;91.40
22526;DHT22;11429;50.842;4.386;2022-07-06T08:24:17;30.80;90.40
22526;DHT22;11429;50.842;4.386;2022-07-06T08:26:43;30.30;90.30
22526;DHT22;11429;50.842;4.386;2022-07-06T08:29:08;29.00;92.10
22526;DHT22;11429;50.842;4.386;2022-07-06T08:31:34;27.90;93.50
22526;DHT22;11429;50.842;4.386;2022-07-06T08:34:01;26.00;95.00
22526;DHT22;11429;50.842;4.386;2022-07-06T08:36:27;24.80;96.40
22526;DHT22;11429;50.842;4.386;2022-07-06T08:38:53;25.10;96.50
22526;DHT22;11429;50.842;4.386;2022-07-06T08:41:21;26.80;94.50
22526;DHT22;11429;50.842;4.386;2022-07-06T08:43:51;26.30;94.60
22526;DHT22;11429;50.842;4.386;2022-07-06T08:46:18;27.80;92.90
22526;DHT22;11429;50.842;4.386;2022-07-06T08:48:45;28.20;92.20
22526;DHT22;11429;50.842;4.386;2022-07-06T08:51:13;27.10;93.80
22526;DHT22;11429;50.842;4.386;2022-07-06T08:53:41;27.10;94.50
22526;DHT22;11429;50.842;4.386;2022-07-06T08:56:07;26.20;94.60
22526;DHT22;11429;50.842;4.386;2022-07-06T08:58:33;26.10;95.30
22526;DHT22;11429;50.842;4.386;2022-07-06T09:01:00;27.40;93.90
22526;DHT22;11429;50.842;4.386;2022-07-06T09:03:27;26.30;94.80
22526;DHT22;11429;50.842;4.386;2022-07-06T09:05:58;26.50;94.60
22526;DHT22;11429;50.842;4.386;2022-07-06T09:08:27;26.50;94.50
22526;DHT22;11429;50.842;4.386;2022-07-06T09:10:54;25.60;96.20
22526;DHT22;11429;50.842;4.386;2022-07-06T09:13:19;25.30;97.20
22526;DHT22;11429;50.842;4.386;2022-07-06T09:15:45;25.80;95.90
22526;DHT22;11429;50.842;4.386;2022-07-06T09:18:14;25.20;96.70
22526;DHT22;11429;50.842;4.386;2022-07-06T09:20:43;25.50;96.20
22526;DHT22;11429;50.842;4.386;2022-07-06T09:23:09;26.20;95.30
22526;DHT22;11429;50.842;4.386;2022-07-06T09:25:36;25.90;95.60
22526;DHT22;11429;50.842;4.386;2022-07-06T09:28:02;26.60;94.30
22526;DHT22;11429;50.842;4.386;2022-07-06T09:30:29;27.10;94.00
22526;DHT22;11429;50.842;4.386;2022-07-06T09:32:58;27.00;94.00
22526;DHT22;11429;50.842;4.386;2022-07-06T09:35:29;27.00;94.10
22526;DHT22;11429;50.842;4.386;2022-07-06T09:38:14;27.70;94.00
22526;DHT22;11429;50.842;4.386;2022-07-06T09:40:44;27.00;94.30
22526;DHT22;11429;50.842;4.386;2022-07-06T09:43:18;26.10;95.70
22526;DHT22;11429;50.842;4.386;2022-07-06T09:45:49;27.20;94.00
22526;DHT22;11429;50.842;4.386;2022-07-06T09:48:19;28.30;93.30
22526;DHT22;11429;50.842;4.386;2022-07-06T09:50:56;26.70;94.10
22526;DHT22;11429;50.842;4.386;2022-07-06T09:53:24;26.30;94.20
22526;DHT22;11429;50.842;4.386;2022-07-06T09:55:52;25.30;95.60
22526;DHT22;11429;50.842;4.386;2022-07-06T09:58:19;24.40;96.80
22526;DHT22;11429;50.842;4.386;2022-07-06T10:00:46;23.80;97.40
22526;DHT22;11429;50.842;4.386;2022-07-06T10:03:13;23.40;97.90
22526;DHT22;11429;50.842;4.386;2022-07-06T10:05:41;23.60;97.90
22526;DHT22;11429;50.842;4.386;2022-07-06T10:08:09;23.40;98.10
22526;DHT22;11429;50.842;4.386;2022-07-06T10:10:36;23.60;98.00
22526;DHT22;11429;50.842;4.386;2022-07-06T10:13:03;23.00;98.70
22526;DHT22;11429;50.842;4.386;2022-07-06T10:15:31;23.50;98.40
22526;DHT22;11429;50.842;4.386;2022-07-06T10:17:58;24.50;97.50
22526;DHT22;11429;50.842;4.386;2022-07-06T10:20:28;25.40;96.10
22526;DHT22;11429;50.842;4.386;2022-07-06T10:22:54;25.50;96.10
22526;DHT22;11429;50.842;4.386;2022-07-06T10:25:23;26.20;95.30
22526;DHT22;11429;50.842;4.386;2022-07-06T10:27:51;25.80;95.80
22526;DHT22;11429;50.842;4.386;2022-07-06T10:30:18;24.50;97.00
22526;DHT22;11429;50.842;4.386;2022-07-06T10:32:45;23.80;98.20
22526;DHT22;11429;50.842;4.386;2022-07-06T10:35:13;24.80;97.40
22526;DHT22;11429;50.842;4.386;2022-07-06T10:37:39;26.00;96.40
22526;DHT22;11429;50.842;4.386;2022-07-06T10:40:05;25.90;96.50
22526;DHT22;11429;50.842;4.386;2022-07-06T10:42:56;24.80;97.20
22526;DHT22;11429;50.842;4.386;2022-07-06T10:48:33;23.40;97.60
22526;DHT22;11429;50.842;4.386;2022-07-06T10:50:59;23.30;98.20
22526;DHT22;11429;50.842;4.386;2022-07-06T10:53:34;23.70;98.50
22526;DHT22;11429;50.842;4.386;2022-07-06T10:56:03;23.70;98.80
22526;DHT22;11429;50.842;4.386;2022-07-06T10:58:35;24.30;98.10
22526;DHT22;11429;50.842;4.386;2022-07-06T11:01:02;24.50;97.60
22526;DHT22;11429;50.842;4.386;2022-07-06T11:03:32;25.90;96.10
22526;DHT22;11429;50.842;4.386;2022-07-06T11:05:59;27.50;94.70
22526;DHT22;11429;50.842;4.386;2022-07-06T11:08:50;27.40;94.40
22526;DHT22;11429;50.842;4.386;2022-07-06T11:11:22;27.40;94.80
22526;DHT22;11429;50.842;4.386;2022-07-06T11:16:16;27.30;94.30
22526;DHT22;11429;50.842;4.386;2022-07-06T11:18:50;27.30;93.90
22526;DHT22;11429;50.842;4.386;2022-07-06T11:21:32;27.10;94.10
22526;DHT22;11429;50.842;4.386;2022-07-06T11:23:58;25.60;95.30
22526;DHT22;11429;50.842;4.386;2022-07-06T11:26:24;24.20;97.10
22526;DHT22;11429;50.842;4.386;2022-07-06T11:28:51;23.70;98.50
22526;DHT22;11429;50.842;4.386;2022-07-06T11:31:17;23.40;98.40
22526;DHT22;11429;50.842;4.386;2022-07-06T11:33:47;24.10;97.40
22526;DHT22;11429;50.842;4.386;2022-07-06T11:38:42;25.00;96.20
22526;DHT22;11429;50.842;4.386;2022-07-06T11:41:08;25.50;96.00
22526;DHT22;11429;50.842;4.386;2022-07-06T11:43:34;25.30;95.50
22526;DHT22;11429;50.842;4.386;2022-07-06T11:46:00;25.50;95.20
22526;DHT22;11429;50.842;4.386;2022-07-06T11:48:26;25.50;95.70
22526;DHT22;11429;50.842;4.386;2022-07-06T11:51:02;26.40;94.90
22526;DHT22;11429;50.842;4.386;2022-07-06T11:53:29;26.70;94.10
22526;DHT22;11429;50.842;4.386;2022-07-06T11:55:55;27.10;93.40
22526;DHT22;11429;50.842;4.386;2022-07-06T11:58:22;27.40;92.60
22526;DHT22;11429;50.842;4.386;2022-07-06T12:01:08;27.80;92.60
22526;DHT22;11429;50.842;4.386;2022-07-06T12:03:34;26.70;94.10
22526;DHT22;11429;50.842;4.386;2022-07-06T12:06:05;26.30;94.30
22526;DHT22;11429;50.842;4.386;2022-07-06T12:08:31;26.30;95.10
22526;DHT22;11429;50.842;4.386;2022-07-06T12:10:59;25.40;95.10
22526;DHT22;11429;50.842;4.386;2022-07-06T12:13:25;24.30;96.20
22526;DHT22;11429;50.842;4.386;2022-07-06T12:15:51;24.00;96.60
22526;DHT22;11429;50.842;4.386;2022-07-06T12:18:17;24.30;97.00
22526;DHT22;11429;50.842;4.386;2022-07-06T12:20:43;25.10;96.80
22526;DHT22;11429;50.842;4.386;2022-07-06T12:23:09;25.50;96.50
22526;DHT22;11429;50.842;4.386;2022-07-06T12:25:36;25.40;96.70
22526;DHT22;11429;50.842;4.386;2022-07-06T12:28:03;26.00;95.10
22526;DHT22;11429;50.842;4.386;2022-07-06T12:30:29;25.90;95.40
22526;DHT22;11429;50.842;4.386;2022-07-06T12:33:12;25.50;95.50
22526;DHT22;11429;50.842;4.386;2022-07-06T12:35:38;25.80;95.40
22526;DHT22;11429;50.842;4.386;2022-07-06T12:38:04;25.70;96.10
22526;DHT22;11429;50.842;4.386;2022-07-06T12:40:29;25.20;96.80
22526;DHT22;11429;50.842;4.386;2022-07-06T12:42:55;25.30;96.90
22526;DHT22;11429;50.842;4.386;2022-07-06T12:45:27;25.50;96.80
22526;DHT22;11429;50.842;4.386;2022-07-06T12:48:01;26.20;96.10
22526;DHT22;11429;50.842;4.386;2022-07-06T12:50:39;25.70;96.20
22526;DHT22;11429;50.842;4.386;2022-07-06T12:53:23;25.80;95.80
22526;DHT22;11429;50.842;4.386;2022-07-06T12:56:08;26.50;95.20
22526;DHT22;11429;50.842;4.386;2022-07-06T12:58:34;24.40;96.70
22526;DHT22;11429;50.842;4.386;2022-07-06T13:01:00;24.40;97.40
22526;DHT22;11429;50.842;4.386;2022-07-06T13:03:26;24.70;97.90
22526;DHT22;11429;50.842;4.386;2022-07-06T13:05:51;24.50;98.20
22526;DHT22;11429;50.842;4.386;2022-07-06T13:08:17;24.80;97.90
22526;DHT22;11429;50.842;4.386;2022-07-06T13:10:44;24.50;97.90
22526;DHT22;11429;50.842;4.386;2022-07-06T13:13:10;24.60;98.00
22526;DHT22;11429;50.842;4.386;2022-07-06T13:15:36;25.40;96.80
22526;DHT22;11429;50.842;4.386;2022-07-06T13:18:02;25.20;96.70
22526;DHT22;11429;50.842;4.386;2022-07-06T13:20:27;24.60;97.60
22526;DHT22;11429;50.842;4.386;2022-07-06T13:22:54;24.80;97.80
22526;DHT22;11429;50.842;4.386;2022-07-06T13:25:20;24.70;98.00
22526;DHT22;11429;50.842;4.386;2022-07-06T13:27:46;24.90;98.00
22526;DHT22;11429;50.842;4.386;2022-07-06T13:30:12;25.40;98.00
22526;DHT22;11429;50.842;4.386;2022-07-06T13:32:37;25.10;97.40
22526;DHT22;11429;50.842;4.386;2022-07-06T13:35:05;25.20;97.30
22526;DHT22;11429;50.842;4.386;2022-07-06T13:37:30;25.30;97.10
22526;DHT22;11429;50.842;4.386;2022-07-06T13:39:56;25.50;96.60
22526;DHT22;11429;50.842;4.386;2022-07-06T13:42:22;25.30;97.30
22526;DHT22;11429;50.842;4.386;2022-07-06T13:44:47;25.20;96.90
22526;DHT22;11429;50.842;4.386;2022-07-06T13:47:13;25.30;97.00
22526;DHT22;11429;50.842;4.386;2022-07-06T13:49:39;25.20;97.80
22526;DHT22;11429;50.842;4.386;2022-07-06T13:52:05;25.20;97.50
22526;DHT22;11429;50.842;4.386;2022-07-06T13:54:32;24.90;97.80
22526;DHT22;11429;50.842;4.386;2022-07-06T13:56:58;24.50;97.80
22526;DHT22;11429;50.842;4.386;2022-07-06T13:59:23;24.90;98.10
22526;DHT22;11429;50.842;4.386;2022-07-06T14:01:49;24.80;97.80
22526;DHT22;11429;50.842;4.386;2022-07-06T14:04:15;24.70;98.40
22526;DHT22;11429;50.842;4.386;2022-07-06T14:06:41;24.50;98.80
22526;DHT22;11429;50.842;4.386;2022-07-06T14:09:06;24.40;98.90
22526;DHT22;11429;50.842;4.386;2022-07-06T14:11:32;24.60;98.80
22526;DHT22;11429;50.842;4.386;2022-07-06T14:13:58;24.80;98.60
22526;DHT22;11429;50.842;4.386;2022-07-06T14:16:23;25.00;98.80
22526;DHT22;11429;50.842;4.386;2022-07-06T14:18:49;25.20;98.50
22526;DHT22;11429;50.842;4.386;2022-07-06T14:21:16;24.80;98.40
22526;DHT22;11429;50.842;4.386;2022-07-06T14:23:42;24.40;98.80
22526;DHT22;11429;50.842;4.386;2022-07-06T14:26:08;24.20;99.00
22526;DHT22;11429;50.842;4.386;2022-07-06T14:28:33;24.50;99.10
22526;DHT22;11429;50.842;4.386;2022-07-06T14:30:59;24.80;98.70
22526;DHT22;11429;50.842;4.386;2022-07-06T14:33:27;24.90;98.30
22526;DHT22;11429;50.842;4.386;2022-07-06T14:35:52;25.10;97.40
22526;DHT22;11429;50.842;4.386;2022-07-06T14:38:19;24.90;97.90
22526;DHT22;11429;50.842;4.386;2022-07-06T14:40:49;25.20;97.50
22526;DHT22;11429;50.842;4.386;2022-07-06T14:43:16;25.50;97.40
22526;DHT22;11429;50.842;4.386;2022-07-06T14:45:45;25.50;97.60
22526;DHT22;11429;50.842;4.386;2022-07-06T14:48:12;25.50;97.40
22526;DHT22;11429;50.842;4.386;2022-07-06T14:50:38;25.20;97.60
22526;DHT22;11429;50.842;4.386;2022-07-06T14:53:04;25.00;97.90
22526;DHT22;11429;50.842;4.386;2022-07-06T14:55:30;24.70;98.70
22526;DHT22;11429;50.842;4.386;2022-07-06T14:57:56;25.00;98.50
22526;DHT22;11429;50.842;4.386;2022-07-06T15:00:21;24.90;98.80
22526;DHT22;11429;50.842;4.386;2022-07-06T15:02:47;24.90;98.30
22526;DHT22;11429;50.842;4.386;2022-07-06T15:05:14;25.00;98.50
22526;DHT22;11429;50.842;4.386;2022-07-06T15:07:40;25.00;97.80
22526;DHT22;11429;50.842;4.386;2022-07-06T15:10:06;25.10;98.40
22526;DHT22;11429;50.842;4.386;2022-07-06T15:12:32;24.70;99.20
22526;DHT22;11429;50.842;4.386;2022-07-06T15:14:58;24.60;98.90
22526;DHT22;11429;50.842;4.386;2022-07-06T15:17:24;24.90;98.20
22526;DHT22;11429;50.842;4.386;2022-07-06T15:19:51;24.90;98.50
22526;DHT22;11429;50.842;4.386;2022-07-06T15:22:16;24.90;98.50
22526;DHT22;11429;50.842;4.386;2022-07-06T15:24:42;24.80;98.80
22526;DHT22;11429;50.842;4.386;2022-07-06T15:27:08;24.80;98.60
22526;DHT22;11429;50.842;4.386;2022-07-06T15:29:34;24.50;98.70
22526;DHT22;11429;50.842;4.386;2022-07-06T15:32:00;24.70;98.50
22526;DHT22;11429;50.842;4.386;2022-07-06T15:34:25;25.40;97.60
22526;DHT22;11429;50.842;4.386;2022-07-06T15:36:51;25.20;98.00